sensor_id;sensor_type;location;lat;lon;timestamp;temperature;humidity
9179;DHT22;4624;48.126;11.546;2023-02-28T00:02:10;-1.50;93.80
9179;DHT22;4624;48.126;11.546;2023-02-28T00:04:37;-1.50;93.80
9179;DHT22;4624;48.126;11.546;2023-02-28T00:07:04;-1.60;93.70
9179;DHT22;4624;48.126;11.546;2023-02-28T00:09:30;-1.60;93.70
9179;DHT22;4624;48.126;11.546;2023-02-28T00:11:57;-1.60;93.70
9179;DHT22;4624;48.126;11.546;2023-02-28T00:14:24;-1.60;93.80
9179;DHT22;4624;48.126;11.546;2023-02-28T00:16:52;-1.60;93.80
9179;DHT22;4624;48.126;11.546;2023-02-28T00:19:19;-1.70;93.80
9179;DHT22;4624;48.126;11.546;2023-02-28T00:21:45;-1.70;93.80
9179;DHT22;4624;48.126;11.546;2023-02-28T00:24:12;-1.60;93.90
9179;DHT22;4624;48.126;11.546;2023-02-28T00:26:39;-1.70;93.90
9179;DHT22;4624;48.126;11.546;2023-02-28T00:29:06;-1.70;93.90
9179;DHT22;4624;48.126;11.546;2023-02-28T00:31:32;-1.70;93.90
9179;DHT22;4624;48.126;11.546;2023-02-28T00:34:00;-1.70;94.00
9179;DHT22;4624;48.126;11.546;2023-02-28T00:36:27;-1.70;94.00
9179;DHT22;4624;48.126;11.546;2023-02-28T00:38:54;-1.70;94.00
9179;DHT22;4624;48.126;11.546;2023-02-28T00:41:21;-1.70;94.10
9179;DHT22;4624;48.126;11.546;2023-02-28T00:43:47;-1.80;94.10
9179;DHT22;4624;48.126;11.546;2023-02-28T00:46:14;-1.80;94.10
9179;DHT22;4624;48.126;11.546;2023-02-28T00:48:41;-1.80;94.20
9179;DHT22;4624;48.126;11.546;2023-02-28T00:51:09;-1.80;94.20
9179;DHT22;4624;48.126;11.546;2023-02-28T00:53:36;-1.80;94.20
9179;DHT22;4624;48.126;11.546;2023-02-28T00:56:03;-1.80;94.20
9179;DHT22;4624;48.126;11.546;2023-02-28T00:58:30;-1.80;94.20
9179;DHT22;4624;48.126;11.546;2023-02-28T01:00:57;-1.80;94.30
9179;DHT22;4624;48.126;11.546;2023-02-28T01:03:23;-1.80;94.30
9179;DHT22;4624;48.126;11.546;2023-02-28T01:05:51;-1.80;94.40
9179;DHT22;4624;48.126;11.546;2023-02-28T01:08:19;-1.80;94.40
9179;DHT22;4624;48.126;11.546;2023-02-28T01:10:46;-1.80;94.30
9179;DHT22;4624;48.126;11.546;2023-02-28T01:13:13;-1.80;94.40
9179;DHT22;4624;48.126;11.546;2023-02-28T01:15:43;-1.90;94.40
9179;DHT22;4624;48.126;11.546;2023-02-28T01:18:10;-1.80;94.40
9179;DHT22;4624;48.126;11.546;2023-02-28T01:20:37;-1.90;94.40
9179;DHT22;4624;48.126;11.546;2023-02-28T01:23:04;-1.90;94.50
9179;DHT22;4624;48.126;11.546;2023-02-28T01:25:34;-1.90;94.40
9179;DHT22;4624;48.126;11.546;2023-02-28T01:28:00;-1.90;94.40
9179;DHT22;4624;48.126;11.546;2023-02-28T01:30:27;-1.90;94.40
9179;DHT22;4624;48.126;11.546;2023-02-28T01:32:54;-1.90;94.50
9179;DHT22;4624;48.126;11.546;2023-02-28T01:35:21;-2.00;94.50
9179;DHT22;4624;48.126;11.546;2023-02-28T01:37:47;-2.00;94.50
9179;DHT22;4624;48.126;11.546;2023-02-28T01:40:14;-2.00;94.50
9179;DHT22;4624;48.126;11.546;2023-02-28T01:42:42;-2.00;94.60
9179;DHT22;4624;48.126;11.546;2023-02-28T01:45:21;-2.00;94.60
9179;DHT22;4624;48.126;11.546;2023-02-28T01:47:50;-2.00;94.70
9179;DHT22;4624;48.126;11.546;2023-02-28T01:50:19;-2.00;94.70
9179;DHT22;4624;48.126;11.546;2023-02-28T01:52:49;-2.00;94.70
9179;DHT22;4624;48.126;11.546;2023-02-28T01:55:18;-2.00;94.70
9179;DHT22;4624;48.126;11.546;2023-02-28T01:57:51;-2.00;94.70
9179;DHT22;4624;48.126;11.546;2023-02-28T02:00:22;-2.10;94.70
9179;DHT22;4624;48.126;11.546;2023-02-28T02:02:51;-2.10;94.80
9179;DHT22;4624;48.126;11.546;2023-02-28T02:05:22;-2.10;94.80
9179;DHT22;4624;48.126;11.546;2023-02-28T02:07:51;-2.10;94.90
9179;DHT22;4624;48.126;11.546;2023-02-28T02:10:21;-2.10;94.80
9179;DHT22;4624;48.126;11.546;2023-02-28T02:13:11;-2.10;94.90
9179;DHT22;4624;48.126;11.546;2023-02-28T02:15:43;-2.10;95.00
9179;DHT22;4624;48.126;11.546;2023-02-28T02:18:22;-2.10;95.00
9179;DHT22;4624;48.126;11.546;2023-02-28T02:21:28;-2.20;95.00
9179;DHT22;4624;48.126;11.546;2023-02-28T02:24:40;-2.10;95.10
9179;DHT22;4624;48.126;11.546;2023-02-28T02:27:36;-2.20;95.20
9179;DHT22;4624;48.126;11.546;2023-02-28T02:30:33;-2.20;95.20
9179;DHT22;4624;48.126;11.546;2023-02-28T02:33:15;-2.20;95.20
9179;DHT22;4624;48.126;11.546;2023-02-28T02:35:53;-2.20;95.20
9179;DHT22;4624;48.126;11.546;2023-02-28T02:38:31;-2.20;95.20
9179;DHT22;4624;48.126;11.546;2023-02-28T02:41:04;-2.20;95.30
9179;DHT22;4624;48.126;11.546;2023-02-28T02:43:37;-2.20;95.30
9179;DHT22;4624;48.126;11.546;2023-02-28T02:46:09;-2.10;95.40
9179;DHT22;4624;48.126;11.546;2023-02-28T02:48:39;-2.20;95.40
9179;DHT22;4624;48.126;11.546;2023-02-28T02:51:13;-2.10;95.50
9179;DHT22;4624;48.126;11.546;2023-02-28T02:53:44;-2.20;95.40
9179;DHT22;4624;48.126;11.546;2023-02-28T02:56:13;-2.20;95.50
9179;DHT22;4624;48.126;11.546;2023-02-28T02:58:42;-2.20;95.50
9179;DHT22;4624;48.126;11.546;2023-02-28T03:01:12;-2.30;95.50
9179;DHT22;4624;48.126;11.546;2023-02-28T03:03:41;-2.30;95.60
9179;DHT22;4624;48.126;11.546;2023-02-28T03:06:10;-2.30;95.90
9179;DHT22;4624;48.126;11.546;2023-02-28T03:08:38;-2.30;95.70
9179;DHT22;4624;48.126;11.546;2023-02-28T03:11:06;-2.30;95.80
9179;DHT22;4624;48.126;11.546;2023-02-28T03:13:52;-2.30;95.80
9179;DHT22;4624;48.126;11.546;2023-02-28T03:16:32;-2.40;95.70
9179;DHT22;4624;48.126;11.546;2023-02-28T03:22:09;-2.40;95.90
9179;DHT22;4624;48.126;11.546;2023-02-28T03:24:45;-2.40;96.00
9179;DHT22;4624;48.126;11.546;2023-02-28T03:27:19;-2.40;96.10
9179;DHT22;4624;48.126;11.546;2023-02-28T03:29:50;-2.40;96.10
9179;DHT22;4624;48.126;11.546;2023-02-28T03:32:25;-2.40;96.10
9179;DHT22;4624;48.126;11.546;2023-02-28T03:34:58;-2.40;96.20
9179;DHT22;4624;48.126;11.546;2023-02-28T03:37:31;-2.40;96.20
9179;DHT22;4624;48.126;11.546;2023-02-28T03:40:04;-2.40;96.30
9179;DHT22;4624;48.126;11.546;2023-02-28T03:42:36;-2.40;96.40
9179;DHT22;4624;48.126;11.546;2023-02-28T03:45:05;-2.50;96.40
9179;DHT22;4624;48.126;11.546;2023-02-28T03:47:38;-2.50;96.40
9179;DHT22;4624;48.126;11.546;2023-02-28T03:50:08;-2.50;96.40
9179;DHT22;4624;48.126;11.546;2023-02-28T03:52:44;-2.50;96.60
9179;DHT22;4624;48.126;11.546;2023-02-28T03:55:14;-2.50;96.70
9179;DHT22;4624;48.126;11.546;2023-02-28T03:57:51;-2.50;96.70
9179;DHT22;4624;48.126;11.546;2023-02-28T04:00:27;-2.40;96.80
9179;DHT22;4624;48.126;11.546;2023-02-28T04:02:54;-2.40;96.90
9179;DHT22;4624;48.126;11.546;2023-02-28T04:05:21;-2.50;96.80
9179;DHT22;4624;48.126;11.546;2023-02-28T04:07:50;-2.50;96.80
9179;DHT22;4624;48.126;11.546;2023-02-28T04:10:17;-2.40;97.00
9179;DHT22;4624;48.126;11.546;2023-02-28T04:12:44;-2.50;96.90
9179;DHT22;4624;48.126;11.546;2023-02-28T04:15:10;-2.50;97.00
9179;DHT22;4624;48.126;11.546;2023-02-28T04:17:37;-2.50;97.10
9179;DHT22;4624;48.126;11.546;2023-02-28T04:20:05;-2.40;97.20
9179;DHT22;4624;48.126;11.546;2023-02-28T04:22:35;-2.50;97.20
9179;DHT22;4624;48.126;11.546;2023-02-28T04:25:04;-2.50;97.20
9179;DHT22;4624;48.126;11.546;2023-02-28T04:27:31;-2.50;97.20
9179;DHT22;4624;48.126;11.546;2023-02-28T04:29:58;-2.40;97.40
9179;DHT22;4624;48.126;11.546;2023-02-28T04:32:24;-2.40;97.40
9179;DHT22;4624;48.126;11.546;2023-02-28T04:34:51;-2.40;97.40
9179;DHT22;4624;48.126;11.546;2023-02-28T04:37:18;-2.40;97.40
9179;DHT22;4624;48.126;11.546;2023-02-28T04:39:45;-2.40;97.50
9179;DHT22;4624;48.126;11.546;2023-02-28T04:42:15;-2.40;97.60
9179;DHT22;4624;48.126;11.546;2023-02-28T04:44:41;-2.40;97.70
9179;DHT22;4624;48.126;11.546;2023-02-28T04:47:08;-2.40;97.70
9179;DHT22;4624;48.126;11.546;2023-02-28T04:49:35;-2.30;98.10
9179;DHT22;4624;48.126;11.546;2023-02-28T04:52:02;-2.30;97.80
9179;DHT22;4624;48.126;11.546;2023-02-28T04:54:29;-2.30;97.80
9179;DHT22;4624;48.126;11.546;2023-02-28T04:56:55;-2.30;98.30
9179;DHT22;4624;48.126;11.546;2023-02-28T04:59:24;-2.30;98.00
9179;DHT22;4624;48.126;11.546;2023-02-28T05:01:51;-2.20;98.00
9179;DHT22;4624;48.126;11.546;2023-02-28T05:04:18;-2.20;98.00
9179;DHT22;4624;48.126;11.546;2023-02-28T05:06:44;-2.20;98.00
9179;DHT22;4624;48.126;11.546;2023-02-28T05:09:11;-2.10;98.00
9179;DHT22;4624;48.126;11.546;2023-02-28T05:11:38;-2.10;98.00
9179;DHT22;4624;48.126;11.546;2023-02-28T05:14:06;-2.10;98.00
9179;DHT22;4624;48.126;11.546;2023-02-28T05:16:36;-2.10;98.10
9179;DHT22;4624;48.126;11.546;2023-02-28T05:19:03;-2.10;98.00
9179;DHT22;4624;48.126;11.546;2023-02-28T05:21:32;-2.10;98.00
9179;DHT22;4624;48.126;11.546;2023-02-28T05:24:00;-2.10;98.10
9179;DHT22;4624;48.126;11.546;2023-02-28T05:26:27;-2.10;98.10
9179;DHT22;4624;48.126;11.546;2023-02-28T05:28:55;-2.00;98.10
9179;DHT22;4624;48.126;11.546;2023-02-28T05:31:21;-2.00;98.10
9179;DHT22;4624;48.126;11.546;2023-02-28T05:33:50;-2.00;98.10
9179;DHT22;4624;48.126;11.546;2023-02-28T05:36:17;-2.00;98.10
9179;DHT22;4624;48.126;11.546;2023-02-28T05:38:46;-2.00;98.10
9179;DHT22;4624;48.126;11.546;2023-02-28T05:41:13;-1.90;98.20
9179;DHT22;4624;48.126;11.546;2023-02-28T05:43:40;-1.90;98.50
9179;DHT22;4624;48.126;11.546;2023-02-28T05:46:09;-1.90;98.20
9179;DHT22;4624;48.126;11.546;2023-02-28T05:48:37;-1.90;98.20
9179;DHT22;4624;48.126;11.546;2023-02-28T05:51:06;-1.80;98.20
9179;DHT22;4624;48.126;11.546;2023-02-28T05:53:34;-1.80;98.10
9179;DHT22;4624;48.126;11.546;2023-02-28T05:56:01;-1.80;98.10
9179;DHT22;4624;48.126;11.546;2023-02-28T05:58:28;-1.80;98.00
9179;DHT22;4624;48.126;11.546;2023-02-28T06:00:56;-1.80;98.00
9179;DHT22;4624;48.126;11.546;2023-02-28T06:03:23;-1.80;98.00
9179;DHT22;4624;48.126;11.546;2023-02-28T06:05:50;-1.80;98.00
9179;DHT22;4624;48.126;11.546;2023-02-28T06:08:18;-1.80;97.90
9179;DHT22;4624;48.126;11.546;2023-02-28T06:10:45;-1.80;97.90
9179;DHT22;4624;48.126;11.546;2023-02-28T06:13:12;-1.80;97.90
9179;DHT22;4624;48.126;11.546;2023-02-28T06:15:39;-1.80;97.80
9179;DHT22;4624;48.126;11.546;2023-02-28T06:18:06;-1.80;97.80
9179;DHT22;4624;48.126;11.546;2023-02-28T06:20:32;-1.70;97.80
9179;DHT22;4624;48.126;11.546;2023-02-28T06:23:00;-1.70;97.80
9179;DHT22;4624;48.126;11.546;2023-02-28T06:25:28;-1.70;97.60
9179;DHT22;4624;48.126;11.546;2023-02-28T06:27:55;-1.70;97.60
9179;DHT22;4624;48.126;11.546;2023-02-28T06:30:22;-1.70;97.60
9179;DHT22;4624;48.126;11.546;2023-02-28T06:32:52;-1.70;97.60
9179;DHT22;4624;48.126;11.546;2023-02-28T06:35:18;-1.70;97.50
9179;DHT22;4624;48.126;11.546;2023-02-28T06:37:45;-1.70;97.40
9179;DHT22;4624;48.126;11.546;2023-02-28T06:40:12;-1.70;97.40
9179;DHT22;4624;48.126;11.546;2023-02-28T06:42:41;-1.80;97.30
9179;DHT22;4624;48.126;11.546;2023-02-28T06:45:08;-1.80;97.30
9179;DHT22;4624;48.126;11.546;2023-02-28T06:47:36;-1.70;97.30
9179;DHT22;4624;48.126;11.546;2023-02-28T06:50:03;-1.70;97.30
9179;DHT22;4624;48.126;11.546;2023-02-28T06:52:31;-1.70;97.20
9179;DHT22;4624;48.126;11.546;2023-02-28T06:54:57;-1.70;97.20
9179;DHT22;4624;48.126;11.546;2023-02-28T06:57:27;-1.70;97.20
9179;DHT22;4624;48.126;11.546;2023-02-28T06:59:57;-1.70;97.20
9179;DHT22;4624;48.126;11.546;2023-02-28T07:02:24;-1.70;97.20
9179;DHT22;4624;48.126;11.546;2023-02-28T07:04:51;-1.70;97.20
9179;DHT22;4624;48.126;11.546;2023-02-28T07:07:18;-1.70;97.20
9179;DHT22;4624;48.126;11.546;2023-02-28T07:09:44;-1.70;97.20
9179;DHT22;4624;48.126;11.546;2023-02-28T07:12:11;-1.70;97.20
9179;DHT22;4624;48.126;11.546;2023-02-28T07:14:38;-1.60;97.20
9179;DHT22;4624;48.126;11.546;2023-02-28T07:17:08;-1.60;97.60
9179;DHT22;4624;48.126;11.546;2023-02-28T07:19:36;-1.50;97.30
9179;DHT22;4624;48.126;11.546;2023-02-28T07:22:03;-1.50;97.30
9179;DHT22;4624;48.126;11.546;2023-02-28T07:24:29;-1.40;97.30
9179;DHT22;4624;48.126;11.546;2023-02-28T07:26:56;-1.40;97.10
9179;DHT22;4624;48.126;11.546;2023-02-28T07:29:25;-1.50;97.10
9179;DHT22;4624;48.126;11.546;2023-02-28T07:31:52;-1.40;97.10
9179;DHT22;4624;48.126;11.546;2023-02-28T07:34:20;-1.40;97.00
9179;DHT22;4624;48.126;11.546;2023-02-28T07:36:47;-1.40;97.00
9179;DHT22;4624;48.126;11.546;2023-02-28T07:39:13;-1.40;96.90
9179;DHT22;4624;48.126;11.546;2023-02-28T07:41:40;-1.40;96.90
9179;DHT22;4624;48.126;11.546;2023-02-28T07:44:09;-1.40;96.90
9179;DHT22;4624;48.126;11.546;2023-02-28T07:46:36;-1.40;96.90
9179;DHT22;4624;48.126;11.546;2023-02-28T07:49:03;-1.40;96.90
9179;DHT22;4624;48.126;11.546;2023-02-28T07:51:32;-1.40;96.90
9179;DHT22;4624;48.126;11.546;2023-02-28T07:53:58;-1.40;96.90
9179;DHT22;4624;48.126;11.546;2023-02-28T07:56:25;-1.40;96.90
9179;DHT22;4624;48.126;11.546;2023-02-28T07:58:52;-1.30;96.90
9179;DHT22;4624;48.126;11.546;2023-02-28T08:01:19;-1.30;96.90
9179;DHT22;4624;48.126;11.546;2023-02-28T08:03:46;-1.30;96.90
9179;DHT22;4624;48.126;11.546;2023-02-28T08:06:16;-1.30;96.90
9179;DHT22;4624;48.126;11.546;2023-02-28T08:08:45;-1.30;96.80
9179;DHT22;4624;48.126;11.546;2023-02-28T08:11:11;-1.30;96.80
9179;DHT22;4624;48.126;11.546;2023-02-28T08:13:38;-1.20;96.80
9179;DHT22;4624;48.126;11.546;2023-02-28T08:16:05;-1.20;96.80
9179;DHT22;4624;48.126;11.546;2023-02-28T08:18:32;-1.10;96.80
9179;DHT22;4624;48.126;11.546;2023-02-28T08:20:59;-1.10;96.70
9179;DHT22;4624;48.126;11.546;2023-02-28T08:23:31;-1.10;96.70
9179;DHT22;4624;48.126;11.546;2023-02-28T08:26:00;-1.10;96.60
9179;DHT22;4624;48.126;11.546;2023-02-28T08:28:27;-1.00;96.60
9179;DHT22;4624;48.126;11.546;2023-02-28T08:30:53;-1.00;96.60
9179;DHT22;4624;48.126;11.546;2023-02-28T08:33:21;-1.00;96.50
9179;DHT22;4624;48.126;11.546;2023-02-28T08:35:48;-1.00;96.40
9179;DHT22;4624;48.126;11.546;2023-02-28T08:38:15;-0.90;96.40
9179;DHT22;4624;48.126;11.546;2023-02-28T08:40:41;-0.90;96.40
9179;DHT22;4624;48.126;11.546;2023-02-28T08:43:09;-0.90;96.40
9179;DHT22;4624;48.126;11.546;2023-02-28T08:45:36;-0.80;96.40
9179;DHT22;4624;48.126;11.546;2023-02-28T08:48:04;-0.90;96.40
9179;DHT22;4624;48.126;11.546;2023-02-28T08:50:30;-0.90;96.40
9179;DHT22;4624;48.126;11.546;2023-02-28T08:52:57;-0.80;96.40
9179;DHT22;4624;48.126;11.546;2023-02-28T08:55:25;-0.80;96.40
9179;DHT22;4624;48.126;11.546;2023-02-28T08:57:52;-0.80;96.30
9179;DHT22;4624;48.126;11.546;2023-02-28T09:00:22;-0.70;96.30
9179;DHT22;4624;48.126;11.546;2023-02-28T09:02:49;-0.70;96.20
9179;DHT22;4624;48.126;11.546;2023-02-28T09:05:16;-0.70;96.20
9179;DHT22;4624;48.126;11.546;2023-02-28T09:07:43;-0.60;96.20
9179;DHT22;4624;48.126;11.546;2023-02-28T09:10:10;-0.50;96.10
9179;DHT22;4624;48.126;11.546;2023-02-28T09:12:37;-0.60;96.00
9179;DHT22;4624;48.126;11.546;2023-02-28T09:15:06;-0.60;95.80
9179;DHT22;4624;48.126;11.546;2023-02-28T09:17:34;-0.60;95.80
9179;DHT22;4624;48.126;11.546;2023-02-28T09:20:01;-0.60;95.80
9179;DHT22;4624;48.126;11.546;2023-02-28T09:22:28;-0.60;95.70
9179;DHT22;4624;48.126;11.546;2023-02-28T09:24:54;-0.60;95.70
9179;DHT22;4624;48.126;11.546;2023-02-28T09:27:21;-0.50;95.60
9179;DHT22;4624;48.126;11.546;2023-02-28T09:29:48;-0.50;95.60
9179;DHT22;4624;48.126;11.546;2023-02-28T09:32:15;-0.60;95.50
9179;DHT22;4624;48.126;11.546;2023-02-28T09:34:44;-0.60;95.60
9179;DHT22;4624;48.126;11.546;2023-02-28T09:37:11;-0.50;95.60
9179;DHT22;4624;48.126;11.546;2023-02-28T09:39:38;-0.40;95.60
9179;DHT22;4624;48.126;11.546;2023-02-28T09:42:05;-0.30;95.60
9179;DHT22;4624;48.126;11.546;2023-02-28T09:44:37;-0.30;95.50
9179;DHT22;4624;48.126;11.546;2023-02-28T09:47:10;-0.30;95.50
9179;DHT22;4624;48.126;11.546;2023-02-28T09:49:41;-0.20;95.50
9179;DHT22;4624;48.126;11.546;2023-02-28T09:52:13;-0.10;95.50
9179;DHT22;4624;48.126;11.546;2023-02-28T09:54:41;0.00;95.40
9179;DHT22;4624;48.126;11.546;2023-02-28T09:57:13;0.00;95.30
9179;DHT22;4624;48.126;11.546;2023-02-28T10:00:05;0.00;95.20
9179;DHT22;4624;48.126;11.546;2023-02-28T10:02:55;0.00;95.20
9179;DHT22;4624;48.126;11.546;2023-02-28T10:05:27;0.10;95.10
9179;DHT22;4624;48.126;11.546;2023-02-28T10:08:03;0.30;95.10
9179;DHT22;4624;48.126;11.546;2023-02-28T10:10:37;0.30;94.80
9179;DHT22;4624;48.126;11.546;2023-02-28T10:13:12;0.40;94.70
9179;DHT22;4624;48.126;11.546;2023-02-28T10:15:40;0.40;94.60
9179;DHT22;4624;48.126;11.546;2023-02-28T10:18:12;0.40;94.50
9179;DHT22;4624;48.126;11.546;2023-02-28T10:20:42;0.40;94.30
9179;DHT22;4624;48.126;11.546;2023-02-28T10:23:14;0.50;94.20
9179;DHT22;4624;48.126;11.546;2023-02-28T10:25:46;0.60;94.10
9179;DHT22;4624;48.126;11.546;2023-02-28T10:28:15;0.70;94.10
9179;DHT22;4624;48.126;11.546;2023-02-28T10:30:46;0.80;93.90
9179;DHT22;4624;48.126;11.546;2023-02-28T10:33:23;0.90;93.80
9179;DHT22;4624;48.126;11.546;2023-02-28T10:35:50;0.90;93.70
9179;DHT22;4624;48.126;11.546;2023-02-28T10:38:21;0.80;93.50
9179;DHT22;4624;48.126;11.546;2023-02-28T10:40:49;0.80;93.50
9179;DHT22;4624;48.126;11.546;2023-02-28T10:43:20;1.50;93.70
9179;DHT22;4624;48.126;11.546;2023-02-28T10:45:57;2.10;93.00
9179;DHT22;4624;48.126;11.546;2023-02-28T10:48:36;2.10;92.20
9179;DHT22;4624;48.126;11.546;2023-02-28T10:51:05;2.30;92.20
9179;DHT22;4624;48.126;11.546;2023-02-28T10:53:38;2.30;92.00
9179;DHT22;4624;48.126;11.546;2023-02-28T10:56:15;2.10;91.40
9179;DHT22;4624;48.126;11.546;2023-02-28T10:58:48;2.00;91.50
9179;DHT22;4624;48.126;11.546;2023-02-28T11:01:17;1.90;91.40
9179;DHT22;4624;48.126;11.546;2023-02-28T11:03:44;1.90;91.40
9179;DHT22;4624;48.126;11.546;2023-02-28T11:06:16;2.00;91.40
9179;DHT22;4624;48.126;11.546;2023-02-28T11:08:48;2.10;91.40
9179;DHT22;4624;48.126;11.546;2023-02-28T11:11:16;2.10;91.30
9179;DHT22;4624;48.126;11.546;2023-02-28T11:13:44;2.00;90.90
9179;DHT22;4624;48.126;11.546;2023-02-28T11:16:14;1.70;90.90
9179;DHT22;4624;48.126;11.546;2023-02-28T11:18:46;1.60;90.90
9179;DHT22;4624;48.126;11.546;2023-02-28T11:21:20;1.60;91.10
9179;DHT22;4624;48.126;11.546;2023-02-28T11:23:49;1.70;91.20
9179;DHT22;4624;48.126;11.546;2023-02-28T11:26:35;1.80;91.10
9179;DHT22;4624;48.126;11.546;2023-02-28T11:29:10;1.90;91.10
9179;DHT22;4624;48.126;11.546;2023-02-28T11:31:39;2.10;91.10
9179;DHT22;4624;48.126;11.546;2023-02-28T11:34:30;2.00;90.80
9179;DHT22;4624;48.126;11.546;2023-02-28T11:36:59;2.00;90.80
9179;DHT22;4624;48.126;11.546;2023-02-28T11:39:32;2.10;90.80
9179;DHT22;4624;48.126;11.546;2023-02-28T11:42:08;2.60;90.80
9179;DHT22;4624;48.126;11.546;2023-02-28T11:44:48;3.30;90.40
9179;DHT22;4624;48.126;11.546;2023-02-28T11:47:28;4.00;89.70
9179;DHT22;4624;48.126;11.546;2023-02-28T11:50:13;4.30;88.00
9179;DHT22;4624;48.126;11.546;2023-02-28T11:52:48;4.50;87.60
9179;DHT22;4624;48.126;11.546;2023-02-28T11:55:21;4.40;86.80
9179;DHT22;4624;48.126;11.546;2023-02-28T12:00:54;4.30;86.50
9179;DHT22;4624;48.126;11.546;2023-02-28T12:03:30;4.70;86.40
9179;DHT22;4624;48.126;11.546;2023-02-28T12:06:05;5.60;85.60
9179;DHT22;4624;48.126;11.546;2023-02-28T12:08:44;5.40;82.30
9179;DHT22;4624;48.126;11.546;2023-02-28T12:11:24;4.80;82.40
9179;DHT22;4624;48.126;11.546;2023-02-28T12:14:05;5.30;82.70
9179;DHT22;4624;48.126;11.546;2023-02-28T12:16:48;6.40;80.90
9179;DHT22;4624;48.126;11.546;2023-02-28T12:19:21;6.50;78.50
9179;DHT22;4624;48.126;11.546;2023-02-28T12:22:21;6.80;76.60
9179;DHT22;4624;48.126;11.546;2023-02-28T12:24:59;6.90;75.30
9179;DHT22;4624;48.126;11.546;2023-02-28T12:27:33;7.20;74.20
9179;DHT22;4624;48.126;11.546;2023-02-28T12:30:03;6.50;73.40
9179;DHT22;4624;48.126;11.546;2023-02-28T12:32:35;6.90;74.10
9179;DHT22;4624;48.126;11.546;2023-02-28T12:35:10;6.80;73.50
9179;DHT22;4624;48.126;11.546;2023-02-28T12:37:40;6.30;73.00
9179;DHT22;4624;48.126;11.546;2023-02-28T12:40:13;6.10;73.60
9179;DHT22;4624;48.126;11.546;2023-02-28T12:42:45;6.50;72.70
9179;DHT22;4624;48.126;11.546;2023-02-28T12:45:18;6.80;72.60
9179;DHT22;4624;48.126;11.546;2023-02-28T12:47:46;7.50;71.10
9179;DHT22;4624;48.126;11.546;2023-02-28T12:50:15;8.20;70.20
9179;DHT22;4624;48.126;11.546;2023-02-28T12:52:51;9.50;68.50
9179;DHT22;4624;48.126;11.546;2023-02-28T12:55:23;10.10;63.20
9179;DHT22;4624;48.126;11.546;2023-02-28T12:57:59;10.60;59.40
9179;DHT22;4624;48.126;11.546;2023-02-28T13:00:34;10.70;58.90
9179;DHT22;4624;48.126;11.546;2023-02-28T13:03:24;11.20;58.50
9179;DHT22;4624;48.126;11.546;2023-02-28T13:06:22;12.00;57.60
9179;DHT22;4624;48.126;11.546;2023-02-28T13:09:08;12.40;57.10
9179;DHT22;4624;48.126;11.546;2023-02-28T13:11:40;11.50;54.80
9179;DHT22;4624;48.126;11.546;2023-02-28T13:14:23;10.30;55.50
9179;DHT22;4624;48.126;11.546;2023-02-28T13:17:09;8.90;57.50
9179;DHT22;4624;48.126;11.546;2023-02-28T13:19:38;7.60;58.60
9179;DHT22;4624;48.126;11.546;2023-02-28T13:22:16;6.90;60.00
9179;DHT22;4624;48.126;11.546;2023-02-28T13:24:46;6.50;61.40
9179;DHT22;4624;48.126;11.546;2023-02-28T13:27:32;6.00;62.40
9179;DHT22;4624;48.126;11.546;2023-02-28T13:30:01;5.40;63.90
9179;DHT22;4624;48.126;11.546;2023-02-28T13:32:34;5.10;64.70
9179;DHT22;4624;48.126;11.546;2023-02-28T13:35:42;6.10;65.70
9179;DHT22;4624;48.126;11.546;2023-02-28T13:38:41;8.00;63.20
9179;DHT22;4624;48.126;11.546;2023-02-28T13:41:42;7.60;62.30
9179;DHT22;4624;48.126;11.546;2023-02-28T13:44:11;6.40;62.20
9179;DHT22;4624;48.126;11.546;2023-02-28T13:49:39;4.90;66.30
9179;DHT22;4624;48.126;11.546;2023-02-28T13:52:12;4.40;67.70
9179;DHT22;4624;48.126;11.546;2023-02-28T13:54:58;4.10;68.90
9179;DHT22;4624;48.126;11.546;2023-02-28T13:57:35;3.90;70.00
9179;DHT22;4624;48.126;11.546;2023-02-28T14:00:20;3.80;71.00
9179;DHT22;4624;48.126;11.546;2023-02-28T14:03:00;3.60;71.60
9179;DHT22;4624;48.126;11.546;2023-02-28T14:05:32;3.40;72.10
9179;DHT22;4624;48.126;11.546;2023-02-28T14:08:05;3.30;72.60
9179;DHT22;4624;48.126;11.546;2023-02-28T14:10:34;3.30;73.20
9179;DHT22;4624;48.126;11.546;2023-02-28T14:13:12;3.30;73.70
9179;DHT22;4624;48.126;11.546;2023-02-28T14:15:47;3.30;74.30
9179;DHT22;4624;48.126;11.546;2023-02-28T14:18:25;3.30;75.00
9179;DHT22;4624;48.126;11.546;2023-02-28T14:21:01;3.30;75.80
9179;DHT22;4624;48.126;11.546;2023-02-28T14:23:52;3.30;76.20
9179;DHT22;4624;48.126;11.546;2023-02-28T14:26:47;3.30;76.50
9179;DHT22;4624;48.126;11.546;2023-02-28T14:29:43;3.40;76.50
9179;DHT22;4624;48.126;11.546;2023-02-28T14:32:18;3.30;76.60
9179;DHT22;4624;48.126;11.546;2023-02-28T14:34:53;3.30;76.50
9179;DHT22;4624;48.126;11.546;2023-02-28T14:37:27;3.30;76.70
9179;DHT22;4624;48.126;11.546;2023-02-28T14:39:55;3.30;76.70
9179;DHT22;4624;48.126;11.546;2023-02-28T14:42:30;3.30;77.00
9179;DHT22;4624;48.126;11.546;2023-02-28T14:44:58;3.30;77.30
9179;DHT22;4624;48.126;11.546;2023-02-28T14:47:27;3.20;77.20
9179;DHT22;4624;48.126;11.546;2023-02-28T14:49:55;3.10;77.30
9179;DHT22;4624;48.126;11.546;2023-02-28T14:52:25;3.10;77.60
9179;DHT22;4624;48.126;11.546;2023-02-28T14:54:56;3.00;77.80
9179;DHT22;4624;48.126;11.546;2023-02-28T14:57:26;3.10;78.20
9179;DHT22;4624;48.126;11.546;2023-02-28T15:00:11;3.00;78.60
9179;DHT22;4624;48.126;11.546;2023-02-28T15:02:40;3.10;79.10
9179;DHT22;4624;48.126;11.546;2023-02-28T15:05:23;3.00;79.30
9179;DHT22;4624;48.126;11.546;2023-02-28T15:08:06;3.00;79.50
9179;DHT22;4624;48.126;11.546;2023-02-28T15:10:34;3.00;79.70
9179;DHT22;4624;48.126;11.546;2023-02-28T15:13:02;3.00;79.80
9179;DHT22;4624;48.126;11.546;2023-02-28T15:15:41;2.90;80.10
9179;DHT22;4624;48.126;11.546;2023-02-28T15:18:15;2.90;80.30
9179;DHT22;4624;48.126;11.546;2023-02-28T15:20:45;2.90;80.60
9179;DHT22;4624;48.126;11.546;2023-02-28T15:23:14;2.90;80.60
9179;DHT22;4624;48.126;11.546;2023-02-28T15:25:42;2.80;80.90
9179;DHT22;4624;48.126;11.546;2023-02-28T15:28:14;2.80;80.90
9179;DHT22;4624;48.126;11.546;2023-02-28T15:30:51;2.80;81.20
9179;DHT22;4624;48.126;11.546;2023-02-28T15:33:20;2.80;81.60
9179;DHT22;4624;48.126;11.546;2023-02-28T15:35:48;2.80;81.70
9179;DHT22;4624;48.126;11.546;2023-02-28T15:38:25;2.70;82.00
9179;DHT22;4624;48.126;11.546;2023-02-28T15:40:54;2.70;82.20
9179;DHT22;4624;48.126;11.546;2023-02-28T15:43:26;2.70;82.30
9179;DHT22;4624;48.126;11.546;2023-02-28T15:45:56;2.70;82.50
9179;DHT22;4624;48.126;11.546;2023-02-28T15:48:25;2.70;82.60
9179;DHT22;4624;48.126;11.546;2023-02-28T15:50:55;2.70;82.60
9179;DHT22;4624;48.126;11.546;2023-02-28T15:53:25;2.70;82.70
9179;DHT22;4624;48.126;11.546;2023-02-28T15:55:55;2.70;83.30
9179;DHT22;4624;48.126;11.546;2023-02-28T15:58:24;2.60;83.20
9179;DHT22;4624;48.126;11.546;2023-02-28T16:01:16;2.60;83.40
9179;DHT22;4624;48.126;11.546;2023-02-28T16:03:46;2.60;83.60
9179;DHT22;4624;48.126;11.546;2023-02-28T16:06:41;2.60;83.60
9179;DHT22;4624;48.126;11.546;2023-02-28T16:09:12;2.50;83.80
9179;DHT22;4624;48.126;11.546;2023-02-28T16:11:42;2.50;84.00
9179;DHT22;4624;48.126;11.546;2023-02-28T16:14:15;2.50;84.20
9179;DHT22;4624;48.126;11.546;2023-02-28T16:16:44;2.50;84.40
9179;DHT22;4624;48.126;11.546;2023-02-28T16:19:12;2.60;84.60
9179;DHT22;4624;48.126;11.546;2023-02-28T16:21:38;2.60;85.10
9179;DHT22;4624;48.126;11.546;2023-02-28T16:24:05;2.60;85.70
9179;DHT22;4624;48.126;11.546;2023-02-28T16:26:34;2.60;85.80
9179;DHT22;4624;48.126;11.546;2023-02-28T16:29:03;2.50;86.10